sensor_id;sensor_type;location;lat;lon;timestamp;P1;P2;P0
65383;PMS5003;51986;52.788;41.368;2023-11-21T00:01:03;12.75;12.00;6.00
65383;PMS5003;51986;52.788;41.368;2023-11-21T00:03:30;13.00;12.25;7.00
65383;PMS5003;51986;52.788;41.368;2023-11-21T00:05:58;13.00;13.00;6.00
65383;PMS5003;51986;52.788;41.368;2023-11-21T00:08:25;13.00;11.00;5.00
65383;PMS5003;51986;52.788;41.368;2023-11-21T00:10:52;17.00;16.00;12.50
65383;PMS5003;51986;52.788;41.368;2023-11-21T00:13:19;21.25;19.50;15.00
65383;PMS5003;51986;52.788;41.368;2023-11-21T00:15:46;22.00;21.00;16.00
65383;PMS5003;51986;52.788;41.368;2023-11-21T00:18:13;21.75;20.00;15.00
65383;PMS5003;51986;52.788;41.368;2023-11-21T00:20:40;16.50;15.25;13.00
65383;PMS5003;51986;52.788;41.368;2023-11-21T00:23:06;12.25;12.00;9.00
65383;PMS5003;51986;52.788;41.368;2023-11-21T00:25:34;13.00;11.00;9.00
65383;PMS5003;51986;52.788;41.368;2023-11-21T00:28:01;11.00;10.00;5.00
65383;PMS5003;51986;52.788;41.368;2023-11-21T00:30:28;11.25;10.00;7.00
65383;PMS5003;51986;52.788;41.368;2023-11-21T00:32:55;14.25;12.25;10.25
65383;PMS5003;51986;52.788;41.368;2023-11-21T00:35:22;13.50;12.75;11.00
65383;PMS5003;51986;52.788;41.368;2023-11-21T00:37:49;17.00;15.50;13.00
65383;PMS5003;51986;52.788;41.368;2023-11-21T00:40:16;18.00;16.25;14.00
65383;PMS5003;51986;52.788;41.368;2023-11-21T00:42:43;21.00;19.00;15.00
65383;PMS5003;51986;52.788;41.368;2023-11-21T00:45:10;15.50;14.00;11.00
65383;PMS5003;51986;52.788;41.368;2023-11-21T00:47:37;11.25;11.00;8.00
65383;PMS5003;51986;52.788;41.368;2023-11-21T00:50:05;12.00;11.00;6.00
65383;PMS5003;51986;52.788;41.368;2023-11-21T00:52:32;19.25;17.50;13.00
65383;PMS5003;51986;52.788;41.368;2023-11-21T00:54:59;24.25;21.25;16.25
65383;PMS5003;51986;52.788;41.368;2023-11-21T00:57:27;20.00;17.25;13.25
65383;PMS5003;51986;52.788;41.368;2023-11-21T00:59:54;20.75;19.00;15.00
65383;PMS5003;51986;52.788;41.368;2023-11-21T01:02:20;22.00;21.00;17.00
65383;PMS5003;51986;52.788;41.368;2023-11-21T01:04:47;17.50;17.50;14.00
65383;PMS5003;51986;52.788;41.368;2023-11-21T01:07:15;16.75;14.75;13.00
65383;PMS5003;51986;52.788;41.368;2023-11-21T01:09:42;15.00;13.00;10.00
65383;PMS5003;51986;52.788;41.368;2023-11-21T01:12:09;15.25;13.25;10.00
65383;PMS5003;51986;52.788;41.368;2023-11-21T01:14:36;15.00;13.00;11.00
65383;PMS5003;51986;52.788;41.368;2023-11-21T01:17:03;13.00;12.00;9.00
65383;PMS5003;51986;52.788;41.368;2023-11-21T01:19:30;12.00;11.00;7.00
65383;PMS5003;51986;52.788;41.368;2023-11-21T01:21:57;13.00;12.00;7.00
65383;PMS5003;51986;52.788;41.368;2023-11-21T01:24:24;14.50;13.50;10.75
65383;PMS5003;51986;52.788;41.368;2023-11-21T01:26:51;18.50;17.75;13.00
65383;PMS5003;51986;52.788;41.368;2023-11-21T01:29:18;16.00;15.00;11.00
65383;PMS5003;51986;52.788;41.368;2023-11-21T01:31:45;14.00;13.00;11.00
65383;PMS5003;51986;52.788;41.368;2023-11-21T01:34:12;15.00;14.00;11.00
65383;PMS5003;51986;52.788;41.368;2023-11-21T01:36:39;13.75;12.00;9.00
65383;PMS5003;51986;52.788;41.368;2023-11-21T01:39:06;21.25;19.50;14.50
65383;PMS5003;51986;52.788;41.368;2023-11-21T01:41:33;22.25;21.00;17.00
65383;PMS5003;51986;52.788;41.368;2023-11-21T01:44:01;13.25;12.25;10.00
65383;PMS5003;51986;52.788;41.368;2023-11-21T01:46:28;11.75;11.00;8.00
65383;PMS5003;51986;52.788;41.368;2023-11-21T01:48:55;12.25;11.00;7.00
65383;PMS5003;51986;52.788;41.368;2023-11-21T01:51:22;13.00;11.00;7.00
65383;PMS5003;51986;52.788;41.368;2023-11-21T01:53:50;11.00;11.00;5.00
65383;PMS5003;51986;52.788;41.368;2023-11-21T01:56:17;11.50;11.00;4.00
65383;PMS5003;51986;52.788;41.368;2023-11-21T01:58:44;10.50;9.50;5.25
65383;PMS5003;51986;52.788;41.368;2023-11-21T02:01:12;17.75;17.00;13.50
65383;PMS5003;51986;52.788;41.368;2023-11-21T02:03:39;21.00;20.25;15.00
65383;PMS5003;51986;52.788;41.368;2023-11-21T02:06:07;24.75;21.00;16.00
65383;PMS5003;51986;52.788;41.368;2023-11-21T02:08:34;20.50;19.00;15.00
65383;PMS5003;51986;52.788;41.368;2023-11-21T02:11:01;15.75;14.75;11.25
65383;PMS5003;51986;52.788;41.368;2023-11-21T02:13:28;16.00;15.00;11.25
65383;PMS5003;51986;52.788;41.368;2023-11-21T02:15:55;18.00;15.00;13.00
65383;PMS5003;51986;52.788;41.368;2023-11-21T02:18:22;21.75;19.25;15.25
65383;PMS5003;51986;52.788;41.368;2023-11-21T02:20:49;17.00;13.50;11.50
65383;PMS5003;51986;52.788;41.368;2023-11-21T02:23:16;17.25;14.50;11.25
65383;PMS5003;51986;52.788;41.368;2023-11-21T02:25:43;12.75;12.25;7.50
65383;PMS5003;51986;52.788;41.368;2023-11-21T02:28:10;11.00;11.00;6.00
65383;PMS5003;51986;52.788;41.368;2023-11-21T02:30:37;11.00;9.00;5.00
65383;PMS5003;51986;52.788;41.368;2023-11-21T02:33:04;11.00;9.50;6.00
65383;PMS5003;51986;52.788;41.368;2023-11-21T02:35:31;15.00;12.50;10.00
65383;PMS5003;51986;52.788;41.368;2023-11-21T02:37:59;17.75;15.75;13.00
65383;PMS5003;51986;52.788;41.368;2023-11-21T02:40:26;12.25;11.75;7.75
65383;PMS5003;51986;52.788;41.368;2023-11-21T02:42:54;15.75;14.50;11.00
65383;PMS5003;51986;52.788;41.368;2023-11-21T02:45:21;19.50;17.00;13.00
65383;PMS5003;51986;52.788;41.368;2023-11-21T02:47:50;18.00;17.50;13.00
65383;PMS5003;51986;52.788;41.368;2023-11-21T02:50:17;14.50;14.00;9.00
65383;PMS5003;51986;52.788;41.368;2023-11-21T02:52:44;16.00;14.00;9.00
65383;PMS5003;51986;52.788;41.368;2023-11-21T02:55:11;15.75;13.00;10.50
65383;PMS5003;51986;52.788;41.368;2023-11-21T02:57:38;13.25;12.50;8.00
65383;PMS5003;51986;52.788;41.368;2023-11-21T03:00:05;10.00;9.50;5.00
65383;PMS5003;51986;52.788;41.368;2023-11-21T03:02:33;9.00;9.00;5.00
65383;PMS5003;51986;52.788;41.368;2023-11-21T03:05:01;10.50;10.00;5.50
65383;PMS5003;51986;52.788;41.368;2023-11-21T03:07:28;17.75;17.25;13.50
65383;PMS5003;51986;52.788;41.368;2023-11-21T03:09:55;18.00;16.25;13.00
65383;PMS5003;51986;52.788;41.368;2023-11-21T03:12:22;18.50;17.50;13.00
65383;PMS5003;51986;52.788;41.368;2023-11-21T03:14:49;19.00;18.75;14.00
65383;PMS5003;51986;52.788;41.368;2023-11-21T03:17:16;19.75;19.00;13.25
65383;PMS5003;51986;52.788;41.368;2023-11-21T03:19:43;15.00;14.25;12.25
65383;PMS5003;51986;52.788;41.368;2023-11-21T03:22:10;16.75;15.75;13.00
65383;PMS5003;51986;52.788;41.368;2023-11-21T03:24:37;18.75;17.75;14.00
65383;PMS5003;51986;52.788;41.368;2023-11-21T03:27:04;13.50;13.00;11.00
65383;PMS5003;51986;52.788;41.368;2023-11-21T03:29:31;16.25;15.00;12.75
65383;PMS5003;51986;52.788;41.368;2023-11-21T03:31:59;20.00;19.00;15.00
65383;PMS5003;51986;52.788;41.368;2023-11-21T03:34:26;15.00;14.75;11.75
65383;PMS5003;51986;52.788;41.368;2023-11-21T03:36:54;12.00;11.00;8.00
65383;PMS5003;51986;52.788;41.368;2023-11-21T03:39:22;12.00;11.00;6.75
65383;PMS5003;51986;52.788;41.368;2023-11-21T03:41:49;15.50;15.00;12.50
65383;PMS5003;51986;52.788;41.368;2023-11-21T03:44:16;14.00;13.00;10.00
65383;PMS5003;51986;52.788;41.368;2023-11-21T03:46:44;14.50;13.75;11.75
65383;PMS5003;51986;52.788;41.368;2023-11-21T03:49:11;17.00;17.00;13.00
65383;PMS5003;51986;52.788;41.368;2023-11-21T03:51:40;13.25;13.00;10.00
65383;PMS5003;51986;52.788;41.368;2023-11-21T03:54:07;12.50;11.00;7.00
65383;PMS5003;51986;52.788;41.368;2023-11-21T03:56:38;13.00;13.00;9.00
65383;PMS5003;51986;52.788;41.368;2023-11-21T03:59:05;15.25;14.50;11.00
65383;PMS5003;51986;52.788;41.368;2023-11-21T04:01:32;11.75;11.00;7.00
65383;PMS5003;51986;52.788;41.368;2023-11-21T04:03:59;11.00;9.25;4.00
65383;PMS5003;51986;52.788;41.368;2023-11-21T04:06:26;9.75;7.75;4.00
65383;PMS5003;51986;52.788;41.368;2023-11-21T04:08:54;5.00;5.00;4.00
65383;PMS5003;51986;52.788;41.368;2023-11-21T04:11:21;11.25;11.00;9.75
65383;PMS5003;51986;52.788;41.368;2023-11-21T04:13:47;14.75;13.75;13.00
65383;PMS5003;51986;52.788;41.368;2023-11-21T04:16:14;13.00;12.00;9.00
65383;PMS5003;51986;52.788;41.368;2023-11-21T04:18:42;12.50;11.00;5.00
65383;PMS5003;51986;52.788;41.368;2023-11-21T04:21:09;9.00;8.00;5.00
65383;PMS5003;51986;52.788;41.368;2023-11-21T04:23:36;13.75;11.75;10.00
65383;PMS5003;51986;52.788;41.368;2023-11-21T04:26:02;16.00;14.50;13.00
65383;PMS5003;51986;52.788;41.368;2023-11-21T04:28:29;11.00;10.00;8.00
65383;PMS5003;51986;52.788;41.368;2023-11-21T04:30:56;9.00;7.75;5.00
65383;PMS5003;51986;52.788;41.368;2023-11-21T04:33:23;15.75;14.75;11.75
65383;PMS5003;51986;52.788;41.368;2023-11-21T04:35:50;13.00;11.75;11.00
65383;PMS5003;51986;52.788;41.368;2023-11-21T04:38:18;11.50;10.00;7.00
65383;PMS5003;51986;52.788;41.368;2023-11-21T04:40:45;14.00;12.00;9.00
65383;PMS5003;51986;52.788;41.368;2023-11-21T04:43:12;15.25;14.75;11.75
65383;PMS5003;51986;52.788;41.368;2023-11-21T04:45:39;19.00;17.00;14.00
65383;PMS5003;51986;52.788;41.368;2023-11-21T04:48:06;19.00;17.00;14.00
65383;PMS5003;51986;52.788;41.368;2023-11-21T04:50:33;17.25;16.00;13.00
65383;PMS5003;51986;52.788;41.368;2023-11-21T04:53:00;13.25;11.50;7.50
65383;PMS5003;51986;52.788;41.368;2023-11-21T04:55:27;12.25;12.00;7.75
65383;PMS5003;51986;52.788;41.368;2023-11-21T04:57:54;11.00;10.25;7.00
65383;PMS5003;51986;52.788;41.368;2023-11-21T05:00:21;14.75;13.75;12.25
65383;PMS5003;51986;52.788;41.368;2023-11-21T05:02:48;10.00;9.25;6.75
65383;PMS5003;51986;52.788;41.368;2023-11-21T05:05:15;9.00;9.00;4.00
65383;PMS5003;51986;52.788;41.368;2023-11-21T05:07:42;7.00;7.00;3.00
65383;PMS5003;51986;52.788;41.368;2023-11-21T05:10:09;13.00;11.50;8.25
65383;PMS5003;51986;52.788;41.368;2023-11-21T05:12:37;17.00;15.00;12.00
65383;PMS5003;51986;52.788;41.368;2023-11-21T05:15:04;19.75;18.00;13.00
65383;PMS5003;51986;52.788;41.368;2023-11-21T05:17:32;19.00;18.00;13.00
65383;PMS5003;51986;52.788;41.368;2023-11-21T05:19:59;16.00;14.50;13.00
65383;PMS5003;51986;52.788;41.368;2023-11-21T05:22:26;12.00;11.00;6.75
65383;PMS5003;51986;52.788;41.368;2023-11-21T05:24:53;11.00;10.75;4.00
65383;PMS5003;51986;52.788;41.368;2023-11-21T05:27:20;11.00;10.25;5.00
65383;PMS5003;51986;52.788;41.368;2023-11-21T05:29:47;13.25;13.00;8.75
65383;PMS5003;51986;52.788;41.368;2023-11-21T05:32:14;15.75;15.00;12.50
65383;PMS5003;51986;52.788;41.368;2023-11-21T05:34:41;12.00;11.00;9.00
65383;PMS5003;51986;52.788;41.368;2023-11-21T05:37:08;13.50;12.50;10.00
65383;PMS5003;51986;52.788;41.368;2023-11-21T05:39:35;17.50;16.75;13.00
65383;PMS5003;51986;52.788;41.368;2023-11-21T05:42:17;17.75;17.50;14.50
65383;PMS5003;51986;52.788;41.368;2023-11-21T05:44:44;12.50;12.50;7.50
65383;PMS5003;51986;52.788;41.368;2023-11-21T05:47:11;14.50;13.00;9.00
65383;PMS5003;51986;52.788;41.368;2023-11-21T05:49:38;12.25;12.00;7.00
65383;PMS5003;51986;52.788;41.368;2023-11-21T05:52:05;9.25;8.50;3.75
65383;PMS5003;51986;52.788;41.368;2023-11-21T05:54:32;11.00;8.00;4.00
65383;PMS5003;51986;52.788;41.368;2023-11-21T05:56:59;11.75;8.50;7.00
65383;PMS5003;51986;52.788;41.368;2023-11-21T05:59:26;18.00;16.25;12.25
65383;PMS5003;51986;52.788;41.368;2023-11-21T06:01:53;12.00;12.00;7.50
65383;PMS5003;51986;52.788;41.368;2023-11-21T06:04:20;10.25;9.00;4.00
65383;PMS5003;51986;52.788;41.368;2023-11-21T06:06:47;9.00;7.00;3.00
65383;PMS5003;51986;52.788;41.368;2023-11-21T06:09:14;14.00;12.25;9.00
65383;PMS5003;51986;52.788;41.368;2023-11-21T06:11:41;10.50;8.50;4.50
65383;PMS5003;51986;52.788;41.368;2023-11-21T06:14:08;10.00;7.00;4.00
65383;PMS5003;51986;52.788;41.368;2023-11-21T06:16:35;12.75;9.25;7.00
65383;PMS5003;51986;52.788;41.368;2023-11-21T06:19:02;10.75;7.00;4.00
65383;PMS5003;51986;52.788;41.368;2023-11-21T06:21:29;11.25;9.25;5.00
65383;PMS5003;51986;52.788;41.368;2023-11-21T06:23:56;11.50;9.00;5.00
65383;PMS5003;51986;52.788;41.368;2023-11-21T06:26:23;11.00;8.00;4.25
65383;PMS5003;51986;52.788;41.368;2023-11-21T06:28:50;14.75;13.00;10.00
65383;PMS5003;51986;52.788;41.368;2023-11-21T06:31:17;15.50;15.00;12.75
65383;PMS5003;51986;52.788;41.368;2023-11-21T06:33:44;15.50;15.25;13.00
65383;PMS5003;51986;52.788;41.368;2023-11-21T06:36:11;17.00;17.00;13.00
65383;PMS5003;51986;52.788;41.368;2023-11-21T06:38:38;16.00;15.00;11.50
65383;PMS5003;51986;52.788;41.368;2023-11-21T06:41:05;17.00;13.00;9.00
65383;PMS5003;51986;52.788;41.368;2023-11-21T06:43:32;17.75;15.50;12.00
65383;PMS5003;51986;52.788;41.368;2023-11-21T06:45:59;15.00;13.25;11.00
65383;PMS5003;51986;52.788;41.368;2023-11-21T06:48:27;16.50;16.50;12.25
65383;PMS5003;51986;52.788;41.368;2023-11-21T06:50:54;15.00;15.00;11.00
65383;PMS5003;51986;52.788;41.368;2023-11-21T06:53:21;13.00;12.00;7.00
65383;PMS5003;51986;52.788;41.368;2023-11-21T06:55:47;15.50;14.25;9.25
65383;PMS5003;51986;52.788;41.368;2023-11-21T06:58:15;14.00;12.00;8.00
65383;PMS5003;51986;52.788;41.368;2023-11-21T07:00:41;16.75;14.75;10.75
65383;PMS5003;51986;52.788;41.368;2023-11-21T07:03:08;18.50;16.25;13.00
65383;PMS5003;51986;52.788;41.368;2023-11-21T07:05:35;12.50;11.25;9.00
65383;PMS5003;51986;52.788;41.368;2023-11-21T07:08:02;11.00;9.25;6.25
65383;PMS5003;51986;52.788;41.368;2023-11-21T07:10:30;12.50;12.00;9.00
65383;PMS5003;51986;52.788;41.368;2023-11-21T07:12:57;11.25;11.00;5.00
65383;PMS5003;51986;52.788;41.368;2023-11-21T07:15:24;14.50;13.00;9.75
65383;PMS5003;51986;52.788;41.368;2023-11-21T07:17:51;12.50;11.00;9.00
65383;PMS5003;51986;52.788;41.368;2023-11-21T07:20:18;10.00;9.00;5.75
65383;PMS5003;51986;52.788;41.368;2023-11-21T07:22:45;7.00;6.00;3.25
65383;PMS5003;51986;52.788;41.368;2023-11-21T07:25:12;15.00;14.50;11.00
65383;PMS5003;51986;52.788;41.368;2023-11-21T07:27:39;13.50;13.00;11.00
65383;PMS5003;51986;52.788;41.368;2023-11-21T07:30:06;12.75;11.00;9.00
65383;PMS5003;51986;52.788;41.368;2023-11-21T07:32:34;14.00;12.75;10.75
65383;PMS5003;51986;52.788;41.368;2023-11-21T07:35:01;13.00;13.00;10.00
65383;PMS5003;51986;52.788;41.368;2023-11-21T07:37:28;14.00;13.00;11.00
65383;PMS5003;51986;52.788;41.368;2023-11-21T07:39:56;13.00;13.00;9.25
65383;PMS5003;51986;52.788;41.368;2023-11-21T07:42:25;16.00;15.50;12.00
65383;PMS5003;51986;52.788;41.368;2023-11-21T07:44:52;18.50;17.25;13.00
65383;PMS5003;51986;52.788;41.368;2023-11-21T07:47:20;15.00;14.00;9.00
65383;PMS5003;51986;52.788;41.368;2023-11-21T07:49:47;17.25;15.50;12.75
65383;PMS5003;51986;52.788;41.368;2023-11-21T07:52:14;15.25;14.00;11.00
65383;PMS5003;51986;52.788;41.368;2023-11-21T07:54:41;17.00;15.75;12.75
65383;PMS5003;51986;52.788;41.368;2023-11-21T07:57:08;18.00;17.00;13.00
65383;PMS5003;51986;52.788;41.368;2023-11-21T07:59:35;19.00;17.00;13.25
65383;PMS5003;51986;52.788;41.368;2023-11-21T08:02:02;19.50;19.00;14.00
65383;PMS5003;51986;52.788;41.368;2023-11-21T08:04:29;15.50;14.00;11.50
65383;PMS5003;51986;52.788;41.368;2023-11-21T08:07:00;15.75;15.50;13.25
65383;PMS5003;51986;52.788;41.368;2023-11-21T08:09:27;15.00;15.00;13.00
65383;PMS5003;51986;52.788;41.368;2023-11-21T08:11:54;14.00;13.00;11.00
65383;PMS5003;51986;52.788;41.368;2023-11-21T08:14:21;16.50;15.25;13.00
65383;PMS5003;51986;52.788;41.368;2023-11-21T08:16:48;19.00;18.25;13.00
65383;PMS5003;51986;52.788;41.368;2023-11-21T08:19:15;15.50;15.00;11.00
65383;PMS5003;51986;52.788;41.368;2023-11-21T08:21:42;21.25;18.00;13.00
65383;PMS5003;51986;52.788;41.368;2023-11-21T08:24:09;17.75;15.00;13.00
65383;PMS5003;51986;52.788;41.368;2023-11-21T08:26:36;15.00;14.00;11.00
65383;PMS5003;51986;52.788;41.368;2023-11-21T08:29:03;13.00;12.00;9.50
65383;PMS5003;51986;52.788;41.368;2023-11-21T08:31:30;15.25;15.00;12.25
65383;PMS5003;51986;52.788;41.368;2023-11-21T08:33:57;12.25;12.25;8.75
65383;PMS5003;51986;52.788;41.368;2023-11-21T08:36:25;17.75;17.00;13.00
65383;PMS5003;51986;52.788;41.368;2023-11-21T08:38:52;21.00;19.00;15.00
65383;PMS5003;51986;52.788;41.368;2023-11-21T08:41:19;16.00;13.75;11.00
65383;PMS5003;51986;52.788;41.368;2023-11-21T08:43:50;19.25;16.50;13.00
65383;PMS5003;51986;52.788;41.368;2023-11-21T08:46:18;14.00;13.00;9.00
65383;PMS5003;51986;52.788;41.368;2023-11-21T08:48:46;15.25;13.00;10.75
65383;PMS5003;51986;52.788;41.368;2023-11-21T08:51:13;12.75;11.25;7.00
65383;PMS5003;51986;52.788;41.368;2023-11-21T08:53:40;12.50;11.00;4.50
65383;PMS5003;51986;52.788;41.368;2023-11-21T08:56:11;11.00;9.00;4.00
65383;PMS5003;51986;52.788;41.368;2023-11-21T08:58:42;13.00;11.50;9.75
65383;PMS5003;51986;52.788;41.368;2023-11-21T09:01:09;14.00;13.00;9.00
65383;PMS5003;51986;52.788;41.368;2023-11-21T09:03:36;13.50;11.00;6.00
65383;PMS5003;51986;52.788;41.368;2023-11-21T09:06:03;14.25;13.00;9.25
65383;PMS5003;51986;52.788;41.368;2023-11-21T09:08:30;16.25;15.00;12.50
65383;PMS5003;51986;52.788;41.368;2023-11-21T09:10:57;19.00;17.00;14.00
65383;PMS5003;51986;52.788;41.368;2023-11-21T09:13:24;18.00;16.50;13.00
65383;PMS5003;51986;52.788;41.368;2023-11-21T09:15:51;18.00;17.00;13.00
65383;PMS5003;51986;52.788;41.368;2023-11-21T09:18:19;16.00;15.00;12.00
65383;PMS5003;51986;52.788;41.368;2023-11-21T09:20:46;16.00;16.00;12.00
65383;PMS5003;51986;52.788;41.368;2023-11-21T09:23:13;17.50;15.25;13.00
65383;PMS5003;51986;52.788;41.368;2023-11-21T09:25:40;11.75;10.00;8.25
65383;PMS5003;51986;52.788;41.368;2023-11-21T09:28:07;12.00;9.00;5.00
65383;PMS5003;51986;52.788;41.368;2023-11-21T09:30:34;14.75;13.75;10.25
65383;PMS5003;51986;52.788;41.368;2023-11-21T09:33:02;19.00;18.25;13.25
65383;PMS5003;51986;52.788;41.368;2023-11-21T09:35:30;19.00;17.00;13.00
65383;PMS5003;51986;52.788;41.368;2023-11-21T09:37:57;18.00;16.00;13.00
65383;PMS5003;51986;52.788;41.368;2023-11-21T09:40:24;15.50;15.00;11.75
65383;PMS5003;51986;52.788;41.368;2023-11-21T09:45:29;15.75;14.00;11.00
65383;PMS5003;51986;52.788;41.368;2023-11-21T09:48:01;11.75;11.00;7.50
65383;PMS5003;51986;52.788;41.368;2023-11-21T09:50:28;7.00;7.00;3.25
65383;PMS5003;51986;52.788;41.368;2023-11-21T09:55:44;5.00;5.00;2.00
65383;PMS5003;51986;52.788;41.368;2023-11-21T09:58:14;6.00;5.00;3.00
65383;PMS5003;51986;52.788;41.368;2023-11-21T10:00:42;11.00;10.75;8.25
65383;PMS5003;51986;52.788;41.368;2023-11-21T10:03:13;10.00;8.75;3.50
65383;PMS5003;51986;52.788;41.368;2023-11-21T10:05:44;11.00;9.25;7.00
65383;PMS5003;51986;52.788;41.368;2023-11-21T10:08:13;13.50;12.00;9.00
65383;PMS5003;51986;52.788;41.368;2023-11-21T10:10:42;15.00;14.00;11.00
65383;PMS5003;51986;52.788;41.368;2023-11-21T10:13:14;11.00;9.00;5.00
65383;PMS5003;51986;52.788;41.368;2023-11-21T10:15:41;13.25;11.75;8.00
65383;PMS5003;51986;52.788;41.368;2023-11-21T10:18:08;15.25;14.25;11.25
65383;PMS5003;51986;52.788;41.368;2023-11-21T10:20:36;11.00;11.00;6.75
65383;PMS5003;51986;52.788;41.368;2023-11-21T10:23:03;11.25;9.00;4.00
65383;PMS5003;51986;52.788;41.368;2023-11-21T10:25:30;15.50;13.00;9.75
65383;PMS5003;51986;52.788;41.368;2023-11-21T10:27:58;15.00;14.00;12.00
65383;PMS5003;51986;52.788;41.368;2023-11-21T10:30:44;12.00;10.00;6.50
65383;PMS5003;51986;52.788;41.368;2023-11-21T10:33:11;9.00;6.75;3.00
65383;PMS5003;51986;52.788;41.368;2023-11-21T10:38:08;9.25;8.50;6.50
65383;PMS5003;51986;52.788;41.368;2023-11-21T10:40:38;12.00;11.00;9.00
65383;PMS5003;51986;52.788;41.368;2023-11-21T10:43:06;13.00;12.00;10.00
65383;PMS5003;51986;52.788;41.368;2023-11-21T10:45:33;11.00;10.00;5.00
65383;PMS5003;51986;52.788;41.368;2023-11-21T10:48:01;10.00;9.75;5.00
65383;PMS5003;51986;52.788;41.368;2023-11-21T10:50:32;13.25;13.00;10.25
65383;PMS5003;51986;52.788;41.368;2023-11-21T10:53:04;12.00;12.00;9.00
65383;PMS5003;51986;52.788;41.368;2023-11-21T10:55:32;9.50;9.50;4.00
65383;PMS5003;51986;52.788;41.368;2023-11-21T10:58:00;9.00;9.00;5.75
65383;PMS5003;51986;52.788;41.368;2023-11-21T11:00:29;9.00;9.00;5.00
65383;PMS5003;51986;52.788;41.368;2023-11-21T11:02:57;7.00;7.00;3.00
65383;PMS5003;51986;52.788;41.368;2023-11-21T11:05:27;9.75;9.50;8.25
65383;PMS5003;51986;52.788;41.368;2023-11-21T11:07:59;12.00;11.00;8.75
65383;PMS5003;51986;52.788;41.368;2023-11-21T11:10:31;11.00;9.75;5.00
65383;PMS5003;51986;52.788;41.368;2023-11-21T11:12:58;10.00;8.25;3.00
65383;PMS5003;51986;52.788;41.368;2023-11-21T11:15:26;8.00;5.50;3.00
65383;PMS5003;51986;52.788;41.368;2023-11-21T11:17:54;6.50;5.00;3.00
65383;PMS5003;51986;52.788;41.368;2023-11-21T11:20:22;7.00;5.00;2.00
65383;PMS5003;51986;52.788;41.368;2023-11-21T11:31:23;9.00;9.00;5.00
65383;PMS5003;51986;52.788;41.368;2023-11-21T11:33:57;10.00;7.00;5.00
65383;PMS5003;51986;52.788;41.368;2023-11-21T11:36:36;10.00;7.75;4.00
65383;PMS5003;51986;52.788;41.368;2023-11-21T11:41:56;16.00;13.50;11.50
65383;PMS5003;51986;52.788;41.368;2023-11-21T11:50:03;10.00;9.00;6.00
65383;PMS5003;51986;52.788;41.368;2023-11-21T11:52:49;11.00;10.50;7.25
65383;PMS5003;51986;52.788;41.368;2023-11-21T11:55:18;10.00;10.00;6.00
65383;PMS5003;51986;52.788;41.368;2023-11-21T11:57:49;7.00;7.00;4.00
65383;PMS5003;51986;52.788;41.368;2023-11-21T12:00:20;8.50;7.00;5.00
65383;PMS5003;51986;52.788;41.368;2023-11-21T12:02:54;9.00;9.00;5.00
65383;PMS5003;51986;52.788;41.368;2023-11-21T12:05:23;13.50;13.00;10.75
65383;PMS5003;51986;52.788;41.368;2023-11-21T12:07:53;15.00;13.25;12.50
65383;PMS5003;51986;52.788;41.368;2023-11-21T12:10:21;14.75;14.00;13.00
65383;PMS5003;51986;52.788;41.368;2023-11-21T12:13:00;13.00;13.00;11.50
65383;PMS5003;51986;52.788;41.368;2023-11-21T12:15:28;17.50;17.50;14.00
65383;PMS5003;51986;52.788;41.368;2023-11-21T12:17:55;15.00;15.00;12.75
65383;PMS5003;51986;52.788;41.368;2023-11-21T12:20:23;16.50;15.50;13.00
65383;PMS5003;51986;52.788;41.368;2023-11-21T12:22:56;11.75;11.00;7.75
65383;PMS5003;51986;52.788;41.368;2023-11-21T12:25:25;12.50;11.50;9.25
65383;PMS5003;51986;52.788;41.368;2023-11-21T12:27:54;13.00;13.00;11.00
65383;PMS5003;51986;52.788;41.368;2023-11-21T12:30:22;15.00;14.75;13.00
65383;PMS5003;51986;52.788;41.368;2023-11-21T12:32:55;11.00;10.75;7.00
65383;PMS5003;51986;52.788;41.368;2023-11-21T12:35:26;11.00;9.00;5.00
65383;PMS5003;51986;52.788;41.368;2023-11-21T12:37:54;11.50;10.75;8.25
65383;PMS5003;51986;52.788;41.368;2023-11-21T12:40:22;14.25;13.00;10.00
65383;PMS5003;51986;52.788;41.368;2023-11-21T12:42:51;14.00;13.00;11.00
65383;PMS5003;51986;52.788;41.368;2023-11-21T12:45:20;12.25;11.00;8.00
65383;PMS5003;51986;52.788;41.368;2023-11-21T12:48:04;12.00;10.00;7.00
65383;PMS5003;51986;52.788;41.368;2023-11-21T12:50:32;9.00;7.00;4.25
65383;PMS5003;51986;52.788;41.368;2023-11-21T12:53:01;10.50;9.25;7.50
65383;PMS5003;51986;52.788;41.368;2023-11-21T12:55:31;7.75;7.00;5.00
65383;PMS5003;51986;52.788;41.368;2023-11-21T12:58:00;9.00;9.00;6.25
65383;PMS5003;51986;52.788;41.368;2023-11-21T13:00:30;14.00;14.00;12.00
65383;PMS5003;51986;52.788;41.368;2023-11-21T13:02:59;10.50;10.25;5.25
65383;PMS5003;51986;52.788;41.368;2023-11-21T13:05:33;9.00;9.00;7.50
65383;PMS5003;51986;52.788;41.368;2023-11-21T13:08:02;9.00;9.00;6.00
65383;PMS5003;51986;52.788;41.368;2023-11-21T13:10:31;7.00;6.00;4.50
65383;PMS5003;51986;52.788;41.368;2023-11-21T13:12:58;11.00;10.75;9.00
65383;PMS5003;51986;52.788;41.368;2023-11-21T13:15:29;11.00;11.00;9.00
65383;PMS5003;51986;52.788;41.368;2023-11-21T13:17:56;9.25;8.00;3.25
65383;PMS5003;51986;52.788;41.368;2023-11-21T13:20:24;4.00;3.00;3.00
65383;PMS5003;51986;52.788;41.368;2023-11-21T13:22:55;5.00;4.00;2.00
65383;PMS5003;51986;52.788;41.368;2023-11-21T13:25:24;5.00;5.00;3.00
65383;PMS5003;51986;52.788;41.368;2023-11-21T13:27:51;11.75;11.00;9.00
65383;PMS5003;51986;52.788;41.368;2023-11-21T13:30:18;10.25;10.00;8.25
65383;PMS5003;51986;52.788;41.368;2023-11-21T13:32:45;14.25;14.00;11.25
65383;PMS5003;51986;52.788;41.368;2023-11-21T13:35:13;14.50;13.00;12.00
65383;PMS5003;51986;52.788;41.368;2023-11-21T13:37:40;11.50;11.00;6.25
65383;PMS5003;51986;52.788;41.368;2023-11-21T13:40:07;6.00;5.25;3.00
65383;PMS5003;51986;52.788;41.368;2023-11-21T13:42:35;5.00;4.00;3.00
65383;PMS5003;51986;52.788;41.368;2023-11-21T13:45:02;10.00;9.25;7.50
65383;PMS5003;51986;52.788;41.368;2023-11-21T13:47:29;13.00;11.25;9.00
65383;PMS5003;51986;52.788;41.368;2023-11-21T13:49:57;9.25;7.75;4.75
65383;PMS5003;51986;52.788;41.368;2023-11-21T13:52:24;8.00;7.00;5.25
65383;PMS5003;51986;52.788;41.368;2023-11-21T13:54:51;5.25;5.00;3.00
65383;PMS5003;51986;52.788;41.368;2023-11-21T13:57:19;9.00;9.00;5.00
65383;PMS5003;51986;52.788;41.368;2023-11-21T13:59:46;5.00;5.00;3.00
65383;PMS5003;51986;52.788;41.368;2023-11-21T14:02:12;5.00;5.00;3.00
65383;PMS5003;51986;52.788;41.368;2023-11-21T14:04:40;7.75;7.50;6.50
65383;PMS5003;51986;52.788;41.368;2023-11-21T14:07:07;10.00;10.00;6.25
65383;PMS5003;51986;52.788;41.368;2023-11-21T14:09:34;9.00;8.00;3.25
65383;PMS5003;51986;52.788;41.368;2023-11-21T14:12:01;9.50;9.00;6.00